Date,TemperatureHighF,TemperatureAvgF,TemperatureLowF,DewpointHighF,DewpointAvgF,DewpointLowF,HumidityHigh,HumidityAvg,HumidityLow,PressureMaxIn,PressureMinIn,WindSpeedMaxMPH,WindSpeedAvgMPH,GustSpeedMaxMPH,PrecipitationSumIn
2013-1-1,29.4,15.9,6.6,22.8,12.9,3.8,93,88,75,30.61,30.47,5,1,10,0.00
2013-1-2,28.1,10.5,-0.7,19.2,6.8,-3.9,93,85,69,30.57,30.47,3,1,6,0.00
2013-1-3,30.3,14.6,-2.1,19.7,9.2,-5.5,91,80,60,30.49,30.36,4,1,9,0.00
2013-1-4,43.1,26.8,17.6,31.6,20.5,13.1,92,78,58,30.45,30.25,3,1,6,0.13
2013-1-5,28.7,23.9,19.2,25.9,19.7,15.2,91,84,75,30.26,30.17,4,2,7,0.00
2013-1-6,40.5,30.4,22.3,30.1,25.4,20.0,93,82,63,30.23,30.10,3,2,7,0.15
2013-1-7,44.7,36.9,30.2,39.4,33.2,26.8,96,87,76,30.12,30.01,6,3,9,0.24
2013-1-8,44.2,37.8,34.7,38.4,34.8,31.8,96,89,75,30.13,29.94,5,2,9,0.16
2013-1-9,42.1,34.1,23.3,34.1,28.6,19.3,89,80,69,29.95,29.67,9,3,16,0.04
2013-1-10,32.7,22.5,13.2,25.1,18.1,10.3,100,83,60,30.02,29.80,4,1,8,0.00
2013-1-11,28.7,16.0,5.3,17.9,10.3,2.0,94,79,49,30.29,30.01,4,1,7,0.00
2013-1-12,27.0,8.9,-3.8,11.7,2.9,-7.4,90,78,45,30.45,30.29,3,1,7,0.00
2013-1-13,28.8,8.1,-7.1,10.1,0.1,-10.9,92,72,38,30.56,30.44,3,1,4,0.00
2013-1-14,40.2,18.2,1.4,23.8,10.6,-2.4,87,74,45,30.60,30.47,4,1,10,0.00
2013-1-15,48.3,25.3,12.9,26.6,17.6,10.5,92,75,37,30.68,30.54,6,1,8,0.01
2013-1-16,51.7,25.8,10.0,25.4,16.1,6.8,91,71,26,30.71,30.55,4,1,7,0.00
2013-1-17,50.7,29.3,15.9,25.4,18.8,12.7,88,68,31,30.57,30.39,5,2,8,0.00
2013-1-18,50.9,28.9,16.9,23.9,18.2,13.4,88,68,28,30.44,30.33,5,2,9,0.00
2013-1-19,52.7,28.5,15.0,23.9,17.9,12.1,89,68,28,30.46,30.34,5,2,10,0.00
2013-1-20,48.2,25.4,11.4,22.4,15.2,8.5,91,69,31,30.48,30.36,5,1,7,0.00
2013-1-21,51.9,26.5,10.8,21.4,14.7,7.8,90,65,24,30.40,30.22,4,2,7,0.00
2013-1-22,53.7,29.3,14.5,24.7,17.1,10.0,84,64,24,30.25,30.04,4,1,7,0.00
2013-1-23,43.9,37.8,30.3,35.4,27.3,19.7,90,67,42,30.04,29.82,5,2,9,0.02
2013-1-24,47.7,39.2,34.4,39.5,34.9,33.1,97,85,62,30.09,30.02,4,1,7,0.03
2013-1-25,40.6,38.3,35.7,39.4,37.2,34.8,98,96,89,30.08,29.83,5,1,6,0.35
2013-1-26,39.5,32.0,26.6,34.7,26.4,22.1,97,80,58,29.96,29.83,7,2,10,0.01
2013-1-27,35.4,28.0,19.8,26.7,23.7,17.7,95,85,57,30.06,29.96,8,2,11,0.01
2013-1-28,33.4,30.3,27.4,29.6,27.6,25.3,94,90,80,30.10,29.99,6,2,10,0.01
2013-1-29,41.1,35.2,31.1,33.1,30.5,28.9,95,83,72,30.34,30.10,7,4,11,0.10
2013-1-30,42.2,36.1,29.6,34.6,31.5,27.7,95,84,74,30.37,30.33,5,2,10,0.00
2013-1-31,48.2,32.7,25.5,34.2,27.6,23.6,97,84,43,30.35,30.25,3,1,5,0.01
2013-2-1,51.8,31.9,20.0,33.1,25.3,18.2,100,80,37,30.38,30.27,4,1,7,0.00
2013-2-2,48.0,31.3,18.0,32.4,25.5,15.8,94,81,51,30.40,30.27,4,1,8,0.00
2013-2-3,54.4,37.2,23.6,30.0,25.4,20.2,94,67,26,30.28,30.11,5,1,9,0.01
2013-2-4,51.8,39.6,31.1,26.8,24.7,19.4,79,58,29,30.12,29.86,4,1,7,0.00
2013-2-5,42.2,37.2,31.6,33.2,25.8,19.2,87,64,45,29.97,29.81,8,3,11,0.01
2013-2-6,44.4,36.2,30.0,27.5,25.4,22.4,84,66,42,30.04,29.82,5,2,10,0.00
2013-2-7,39.5,31.7,24.1,29.6,23.1,17.0,92,72,43,29.99,29.81,5,1,9,0.03
2013-2-8,38.0,28.4,17.8,24.6,19.8,13.7,93,73,40,30.14,29.99,5,1,11,0.00
2013-2-9,43.1,26.4,12.3,28.4,19.9,9.2,92,78,51,30.22,30.13,4,1,7,0.00
2013-2-10,43.3,30.3,21.4,28.4,22.0,18.5,94,74,42,30.26,30.18,5,1,10,0.01
2013-2-11,50.6,30.3,15.5,29.8,22.4,13.2,93,75,39,30.32,30.19,5,1,7,0.00
2013-2-12,48.7,33.9,23.0,32.7,27.2,21.3,97,79,47,30.39,30.31,5,1,9,0.01
2013-2-13,47.1,36.0,27.0,34.8,29.8,25.2,94,79,53,30.38,30.30,5,2,9,0.00
2013-2-14,52.3,34.6,22.4,34.4,28.5,20.4,96,81,49,30.49,30.38,4,1,8,0.00
2013-2-15,59.2,36.7,24.3,36.1,28.0,22.8,96,75,33,30.46,30.21,3,1,7,0.00
2013-2-16,50.6,35.0,26.1,32.8,26.5,21.8,94,73,40,30.24,30.06,10,2,13,0.01
2013-2-17,44.9,31.1,20.5,23.6,19.6,9.8,94,67,25,30.13,29.99,4,1,7,0.00
2013-2-18,40.7,31.2,24.4,23.3,20.3,14.9,85,66,37,29.99,29.68,5,2,10,0.00
2013-2-19,39.3,29.0,20.1,25.4,21.3,17.6,92,75,45,29.89,29.60,4,1,7,0.00
2013-2-20,40.0,27.7,15.5,25.7,20.2,13.0,93,75,48,30.02,29.90,8,2,13,0.00
2013-2-21,34.4,29.0,20.6,27.3,24.3,18.4,95,83,66,30.14,30.00,9,3,10,0.01
2013-2-22,44.2,32.6,26.5,32.6,28.4,23.6,95,85,59,30.15,29.81,12,4,22,0.09
2013-2-23,35.3,27.3,17.8,26.3,22.0,14.9,93,81,61,30.34,29.95,8,2,12,0.07
2013-2-24,45.0,27.9,12.9,31.1,21.2,10.4,93,78,54,30.41,30.10,4,1,8,0.01
2013-2-25,36.4,31.5,24.7,31.7,24.7,19.3,94,76,55,30.25,30.00,10,3,15,0.04
2013-2-26,45.5,31.0,19.0,23.4,19.4,15.2,91,66,32,30.34,30.21,4,1,10,0.00
2013-2-27,44.9,34.8,26.0,32.0,25.3,18.6,83,68,57,30.29,30.22,4,1,7,0.00
2013-2-28,51.0,41.3,35.5,42.6,37.1,30.2,94,85,72,30.40,30.19,5,2,7,0.04
2013-3-1,58.4,43.2,31.9,38.0,34.5,28.3,100,74,39,30.41,30.24,5,1,8,0.00
2013-3-2,51.4,39.2,30.7,36.4,31.9,27.6,93,77,43,30.24,30.03,7,2,12,0.00
2013-3-3,42.5,34.7,25.3,33.3,20.8,7.0,89,62,24,30.12,30.01,4,1,7,0.00
2013-3-4,51.6,32.6,17.1,23.1,19.3,14.4,91,63,29,30.15,29.90,4,1,8,0.00
2013-3-5,45.2,35.2,26.0,35.3,28.0,21.3,86,75,56,29.90,29.56,4,1,7,0.01
2013-3-6,36.7,32.5,26.4,33.5,28.8,23.0,96,87,69,29.89,29.43,7,2,16,0.14
2013-3-7,41.6,31.3,17.5,28.0,24.3,15.3,95,77,50,30.00,29.90,4,1,7,0.02
2013-3-8,42.9,31.7,23.5,31.2,26.2,21.5,95,81,52,30.14,29.93,4,1,8,0.00
2013-3-9,51.6,33.1,17.8,26.5,20.0,15.4,99,65,25,30.45,30.14,5,1,8,0.01
2013-3-10,56.4,37.6,21.8,35.1,26.2,16.9,90,67,26,30.46,30.30,8,2,11,0.00
2013-3-11,54.0,42.1,31.9,40.7,35.8,29.5,95,80,57,30.33,30.14,9,2,10,0.00
2013-3-12,62.2,44.2,30.1,40.0,29.8,17.1,97,65,18,30.17,30.05,7,2,10,0.00
2013-3-13,65.0,45.6,32.5,34.9,29.9,27.5,84,58,27,30.12,30.02,4,1,7,0.00
2013-3-14,63.0,44.8,30.1,36.0,28.9,22.4,90,60,23,30.12,29.97,8,2,13,0.00
2013-3-15,57.7,43.4,31.7,38.5,31.5,25.3,90,67,30,30.13,30.02,6,2,10,0.00
2013-3-16,47.1,37.2,30.4,33.7,30.7,27.1,94,79,51,30.05,29.86,9,4,18,0.00
2013-3-17,38.7,32.0,25.9,27.9,21.8,16.2,82,66,50,30.14,29.92,9,5,15,0.00
2013-3-18,51.4,36.3,26.7,27.1,20.4,7.7,86,58,19,30.17,30.05,4,2,9,0.00
2013-3-19,55.9,39.1,26.9,41.3,29.0,19.7,95,70,35,30.08,29.69,5,1,12,0.19
2013-3-20,42.9,38.0,28.4,40.7,33.6,23.6,95,84,68,29.98,29.52,12,5,21,0.23
2013-3-21,37.3,29.9,24.5,26.0,22.5,19.4,87,74,55,30.17,29.98,9,4,16,0.03
2013-3-22,38.3,28.9,21.6,22.5,18.1,11.7,98,67,38,30.27,30.15,7,2,11,0.05
2013-3-23,45.3,29.6,17.2,21.1,17.4,11.4,90,65,26,30.28,30.17,4,1,7,0.00
2013-3-24,47.7,34.6,23.3,27.2,23.2,19.4,86,65,42,30.20,30.04,3,1,6,0.00
2013-3-25,54.3,40.5,28.7,32.8,28.4,24.4,86,64,41,30.04,29.81,4,1,7,0.00
2013-3-26,49.4,40.4,32.7,38.9,35.3,30.8,99,83,62,29.87,29.82,4,1,6,0.01
2013-3-27,56.5,40.7,31.4,43.0,36.0,30.4,97,85,47,29.90,29.80,9,1,9,0.07
2013-3-28,56.8,43.8,35.5,43.0,38.5,33.9,96,84,46,30.02,29.88,4,1,7,0.15
2013-3-29,61.7,46.6,37.0,44.5,39.2,34.6,97,78,44,30.11,30.02,5,1,11,0.01
2013-3-30,70.1,49.0,29.0,43.3,36.9,27.4,96,68,32,30.13,29.94,4,1,7,0.00
2013-3-31,65.3,49.6,33.2,45.3,38.8,30.9,96,69,37,29.93,29.77,4,1,11,0.00
2013-4-1,59.6,47.9,38.6,43.1,39.9,36.0,93,75,53,30.00,29.80,6,1,8,0.00
2013-4-2,62.4,45.2,30.1,41.0,36.1,28.8,97,74,43,30.08,30.00,6,2,10,0.00
2013-4-3,65.4,48.1,32.4,41.0,33.3,25.0,96,64,22,30.06,29.83,4,1,7,0.00
2013-4-4,58.7,48.1,40.4,45.3,39.5,36.0,90,73,49,29.83,29.57,8,3,12,0.09
2013-4-5,53.6,42.9,38.0,40.7,37.9,35.6,94,83,52,29.87,29.76,8,3,12,0.05
2013-4-6,49.9,41.1,37.5,38.8,36.4,33.2,94,84,54,29.88,29.70,10,4,18,0.14
2013-4-7,43.4,37.8,31.3,37.7,32.1,25.5,94,80,60,29.75,29.57,15,5,21,0.08
2013-4-8,46.3,34.6,22.6,27.5,24.3,20.4,93,69,44,30.17,29.76,4,1,9,0.00
2013-4-9,57.8,39.0,20.2,38.0,26.9,15.8,93,67,23,30.29,30.18,4,1,6,0.00
2013-4-10,55.4,43.6,34.8,45.2,36.2,29.7,90,76,52,30.22,30.00,12,4,23,0.00
2013-4-11,54.6,40.3,25.4,29.6,26.2,20.9,94,62,31,30.13,30.02,5,2,8,0.00
2013-4-12,62.2,41.7,25.4,36.0,26.6,13.4,93,63,15,30.04,29.69,9,4,14,0.00
2013-4-13,42.6,36.8,29.8,34.2,23.6,16.8,76,59,39,29.94,29.63,13,6,19,0.00
2013-4-14,42.0,31.5,25.4,30.1,23.5,16.9,93,73,37,29.96,29.81,4,1,6,0.02
2013-4-15,38.4,31.1,28.2,31.1,27.9,25.1,94,88,66,30.04,29.80,5,1,8,0.15
2013-4-16,40.9,31.5,24.4,32.0,27.6,22.7,95,86,60,30.31,30.05,5,1,8,0.13
2013-4-17,48.9,34.7,19.7,27.5,21.7,15.6,94,64,29,30.41,30.31,6,2,13,0.01
2013-4-18,59.9,42.8,26.3,37.9,31.7,22.7,89,67,42,30.37,30.21,6,2,7,0.00
2013-4-19,51.2,44.3,36.5,43.8,38.2,32.6,94,80,61,30.21,30.00,10,4,18,0.11
2013-4-20,59.4,44.9,34.0,36.3,33.7,31.0,92,68,36,30.17,30.07,6,2,11,0.00
2013-4-21,56.2,43.1,30.0,41.0,35.0,28.2,94,75,46,30.11,30.06,9,3,14,0.01
2013-4-22,52.4,41.3,31.3,35.7,26.8,18.2,94,61,28,30.30,30.11,5,2,10,0.01
2013-4-23,63.0,42.0,20.4,21.5,14.1,1.9,86,42,9,30.30,30.03,6,2,12,0.00
2013-4-24,68.3,47.1,25.8,24.8,18.7,11.5,69,39,12,30.18,29.94,5,1,9,0.00
2013-4-25,71.9,50.0,27.0,36.7,28.1,19.4,76,48,21,30.05,29.91,4,1,10,0.00
2013-4-26,76.3,53.6,29.9,38.9,30.6,18.9,92,52,12,30.13,30.05,7,2,9,0.00
2013-4-27,71.9,54.2,34.8,37.2,30.6,21.5,83,47,17,30.13,30.00,8,3,19,0.00
2013-4-28,62.4,51.1,41.6,37.1,31.5,24.7,68,49,26,30.03,29.96,8,4,14,0.00
2013-4-29,53.3,45.2,33.5,43.0,34.6,25.2,92,68,42,29.96,29.86,11,4,22,0.07
2013-4-30,51.6,37.0,21.3,25.3,20.0,13.9,90,56,23,30.31,29.92,7,2,8,0.00
2013-5-1,62.9,43.1,20.2,24.2,18.6,10.7,87,46,13,30.45,30.31,5,2,10,0.00
2013-5-2,75.4,52.8,27.8,28.8,19.3,2.4,78,37,6,30.44,30.13,4,1,10,0.00
2013-5-3,70.4,53.5,30.3,34.3,27.8,23.1,82,42,17,30.16,30.02,5,2,9,0.00
2013-5-4,66.6,51.6,29.9,36.0,30.6,26.5,89,49,28,30.04,29.78,7,3,14,0.00
2013-5-5,71.5,56.5,39.1,36.0,32.7,29.9,76,43,25,29.80,29.60,6,3,13,0.00
2013-5-6,76.5,60.3,43.0,46.1,36.9,31.5,74,45,22,29.69,29.56,6,2,13,0.00
2013-5-7,76.3,60.5,42.0,47.1,41.9,30.8,95,57,21,29.79,29.65,6,2,9,0.00
2013-5-8,78.9,57.6,41.5,48.5,42.4,32.6,94,64,20,29.96,29.79,8,2,13,0.00
2013-5-9,78.6,57.8,41.5,51.9,44.6,38.7,97,67,24,30.02,29.92,5,1,9,0.01
2013-5-10,82.7,61.5,39.6,51.7,44.5,37.9,97,61,22,30.08,29.97,4,1,8,0.01
2013-5-11,85.3,66.1,47.0,55.3,47.7,36.6,94,59,19,30.05,29.85,6,2,12,0.00
2013-5-12,80.9,64.8,48.8,53.8,48.2,41.4,95,61,25,29.89,29.78,8,2,15,0.00
2013-5-13,66.5,54.6,40.1,48.2,42.5,35.0,92,66,41,29.98,29.79,11,3,16,0.00
2013-5-14,69.8,49.8,30.9,40.0,34.6,26.1,94,62,26,30.01,29.90,5,1,10,0.00
2013-5-15,64.9,48.2,35.2,46.2,38.2,33.1,93,71,37,29.95,29.82,5,1,8,0.00
2013-5-16,58.1,46.4,38.5,47.4,40.3,35.6,91,80,51,29.88,29.75,5,1,11,0.08
2013-5-17,58.8,47.2,38.8,39.0,35.9,32.1,92,68,38,29.94,29.81,8,2,12,0.00
2013-5-18,56.7,44.7,33.6,40.7,36.3,31.6,94,74,52,30.15,29.94,9,3,13,0.00
2013-5-19,64.0,47.4,29.2,38.7,34.1,27.1,95,64,35,30.24,30.14,4,1,7,0.00
2013-5-20,75.6,53.3,28.8,43.6,33.9,22.9,96,57,15,30.19,29.76,4,2,8,0.00
2013-5-21,54.4,42.9,30.1,41.7,33.8,25.0,92,72,37,29.82,29.55,12,4,18,0.03
2013-5-22,46.1,35.4,28.8,37.5,29.9,24.0,92,81,58,29.93,29.82,9,4,13,0.10
2013-5-23,55.0,41.2,27.1,35.7,29.8,25.1,94,67,36,29.94,29.87,7,3,12,0.00
2013-5-24,57.4,45.5,36.5,35.5,32.2,23.6,87,63,28,29.92,29.86,7,3,18,0.01
2013-5-25,64.1,46.5,28.1,44.2,33.8,25.9,94,67,29,29.93,29.82,5,1,9,0.02
2013-5-26,58.0,48.8,41.4,44.6,40.4,36.8,97,75,47,29.91,29.80,7,2,13,0.20
2013-5-27,56.5,46.0,36.2,49.1,42.0,34.1,96,86,70,29.88,29.67,6,2,10,0.28
2013-5-28,61.3,50.2,41.4,44.0,39.3,34.2,93,69,37,29.79,29.60,9,3,11,0.05
2013-5-29,57.5,47.6,41.3,44.5,39.8,35.9,94,76,50,29.88,29.53,10,3,17,0.13
2013-5-30,61.1,47.3,33.9,36.6,33.5,27.7,91,63,29,30.08,29.88,7,2,12,0.00
2013-5-31,72.7,50.9,28.4,37.8,29.7,13.9,94,54,12,30.17,30.07,5,1,8,0.00
2013-6-1,77.2,57.2,34.9,44.0,37.9,31.8,90,55,22,30.10,29.83,6,2,9,0.00
2013-6-2,71.7,54.9,36.9,46.9,37.7,30.4,96,59,22,29.87,29.76,6,2,12,0.00
2013-6-3,76.0,56.6,32.2,42.1,34.8,29.6,93,51,20,29.92,29.82,4,1,8,0.00
2013-6-4,80.2,60.3,35.9,40.4,35.3,30.5,84,45,18,29.93,29.84,4,1,8,0.00
2013-6-5,87.5,66.0,41.2,49.4,42.0,35.2,87,48,17,29.91,29.76,6,1,9,0.00
2013-6-6,88.1,67.3,44.6,53.6,47.3,42.1,92,55,22,29.81,29.71,4,1,7,0.00
2013-6-7,83.2,65.9,47.6,52.0,48.0,44.2,93,58,26,29.86,29.77,7,2,12,0.00
2013-6-8,87.7,66.0,42.6,50.0,42.0,30.1,93,51,13,29.90,29.79,5,1,7,0.00
2013-6-9,85.8,65.2,43.9,49.8,39.2,17.3,90,48,8,29.81,29.63,6,1,11,0.00
2013-6-10,79.5,58.9,35.5,41.1,34.1,20.9,89,48,14,29.69,29.57,6,2,8,0.00
2013-6-11,63.9,50.6,37.9,38.6,34.6,26.3,81,57,26,29.94,29.68,8,3,14,0.00
2013-6-12,64.1,47.2,29.6,36.1,32.3,26.5,91,60,29,30.00,29.93,6,1,10,0.00
2013-6-13,55.8,43.7,30.2,39.6,34.8,27.3,93,72,46,30.16,30.00,9,3,18,0.00
2013-6-14,72.3,52.8,29.3,38.8,33.2,27.0,95,55,23,30.16,29.87,4,1,7,0.00
2013-6-15,82.3,60.6,36.1,48.0,37.0,26.3,86,48,14,29.87,29.69,5,2,8,0.00
2013-6-16,79.3,61.5,42.2,49.4,44.1,37.5,92,58,23,29.90,29.75,7,2,16,0.00
2013-6-17,75.6,59.0,40.2,48.9,42.9,37.9,93,60,28,29.90,29.71,8,2,13,0.00
2013-6-18,61.5,52.6,45.7,45.9,41.7,35.6,92,68,42,29.77,29.67,8,2,15,0.01
2013-6-19,56.2,47.6,39.3,38.3,36.6,34.8,85,67,47,29.95,29.74,11,4,17,0.00
2013-6-20,62.8,48.5,37.1,38.5,35.2,31.5,87,63,33,29.99,29.90,8,2,14,0.00
2013-6-21,60.7,48.0,35.1,42.5,38.3,31.8,92,71,45,30.04,29.99,4,1,8,0.00
2013-6-22,76.1,56.9,33.0,47.0,40.1,30.9,94,59,28,30.01,29.73,4,1,8,0.00
2013-6-23,59.7,55.6,50.7,55.8,51.1,45.6,94,85,66,29.73,29.49,3,0,6,0.10
2013-6-24,58.8,51.7,47.0,50.9,47.7,44.7,94,87,69,29.61,29.49,5,1,9,0.07
2013-6-25,60.2,53.5,48.9,53.2,48.6,45.9,94,84,64,29.76,29.58,7,2,11,0.05
2013-6-26,67.8,57.4,49.6,56.9,51.9,46.5,95,83,59,29.92,29.75,5,1,9,0.05
2013-6-27,84.0,64.7,45.3,56.9,51.4,44.2,98,67,31,29.99,29.91,5,1,9,0.07
2013-6-28,90.8,72.5,50.7,59.7,54.0,48.4,94,58,25,30.00,29.81,4,1,7,0.04
2013-6-29,86.2,71.5,55.2,59.1,56.6,53.1,94,63,36,29.86,29.75,3,1,8,0.01
2013-6-30,94.3,75.3,51.0,58.8,54.5,49.0,95,54,24,29.83,29.64,4,2,7,0.00
2013-7-1,97.5,81.2,67.2,60.6,56.1,45.9,71,45,18,29.75,29.65,4,2,8,0.00
2013-7-2,98.9,78.4,57.0,64.8,56.5,44.2,93,55,16,29.80,29.72,6,2,11,0.00
2013-7-3,92.7,76.4,61.2,62.7,54.9,46.1,92,53,22,29.79,29.68,7,2,12,0.00
2013-7-4,82.1,68.5,50.6,47.8,43.0,36.1,76,44,20,29.77,29.66,5,2,11,0.00
2013-7-5,79.3,63.2,42.2,46.8,39.2,33.2,93,48,19,29.74,29.66,4,1,7,0.00
2013-7-6,83.9,62.3,36.4,46.6,36.0,26.9,87,46,14,29.74,29.61,4,1,8,0.00
2013-7-7,86.8,66.8,42.0,49.4,43.1,32.0,89,49,16,29.72,29.60,7,2,13,0.00
2013-7-8,87.7,64.8,42.0,49.5,40.1,26.4,93,51,11,29.86,29.71,5,1,7,0.00
2013-7-9,93.8,72.0,47.4,53.6,44.5,32.1,83,45,12,29.89,29.73,4,1,7,0.00
2013-7-10,90.2,71.4,50.6,54.1,46.9,39.6,89,48,18,29.80,29.61,8,2,13,0.00
2013-7-11,82.4,66.4,48.1,48.5,43.2,35.0,82,48,19,29.72,29.63,6,2,12,0.00
2013-7-12,77.5,60.0,41.6,46.1,38.2,28.2,92,52,17,29.86,29.71,7,2,12,0.00
2013-7-13,78.7,60.4,37.0,41.3,35.3,28.2,88,46,21,29.94,29.85,4,1,10,0.00
2013-7-14,88.5,67.7,42.3,46.2,37.8,29.7,75,38,16,29.95,29.74,5,1,8,0.00
2013-7-15,87.5,68.2,44.1,49.3,40.9,35.7,87,44,19,29.79,29.61,4,2,8,0.00
2013-7-16,83.7,70.1,59.5,46.6,39.1,31.8,58,33,22,29.75,29.58,5,2,11,0.00
2013-7-17,88.2,68.8,47.3,48.0,41.4,32.4,86,45,14,29.93,29.75,5,2,10,0.00
2013-7-18,93.3,70.3,43.8,49.8,42.1,34.6,86,45,13,29.96,29.79,4,1,7,0.00
2013-7-19,93.2,71.7,45.8,48.7,37.1,27.8,86,38,11,29.87,29.73,5,1,9,0.00
2013-7-20,94.2,71.2,44.4,51.8,40.2,30.0,83,41,11,29.79,29.66,5,1,8,0.00
2013-7-21,95.7,70.2,42.0,47.7,35.2,8.1,81,40,4,29.72,29.64,6,2,10,0.00
2013-7-22,94.3,69.7,40.0,46.1,35.7,11.0,85,40,6,29.80,29.71,4,1,8,0.00
2013-7-23,96.0,71.8,44.3,52.3,41.2,26.0,80,41,9,29.83,29.69,5,1,9,0.00
2013-7-24,87.9,71.7,54.2,51.1,43.0,27.2,73,40,12,29.81,29.75,4,1,9,0.00
2013-7-25,95.6,73.9,48.5,51.1,43.4,34.0,85,41,13,29.85,29.75,5,1,11,0.00
2013-7-26,96.0,73.8,52.0,50.0,42.0,34.3,65,36,12,29.87,29.75,5,1,9,0.00
2013-7-27,88.4,67.4,44.6,46.6,37.8,19.4,80,42,9,29.87,29.71,4,1,8,0.00
2013-7-28,83.5,62.9,38.8,41.6,36.1,26.2,87,44,15,29.78,29.68,4,1,8,0.00
2013-7-29,84.9,62.5,38.2,46.1,39.5,29.3,89,50,15,29.83,29.69,5,2,8,0.00
2013-7-30,87.7,65.9,43.9,47.9,39.1,19.0,88,48,10,29.91,29.81,5,2,8,0.00
2013-7-31,81.2,63.9,51.8,53.9,45.8,36.8,85,57,21,29.90,29.74,5,1,9,0.01
2013-8-1,71.4,58.7,50.3,55.5,49.7,44.9,96,75,43,29.85,29.77,7,2,13,0.02
2013-8-2,74.8,63.3,47.4,47.8,44.0,37.8,88,52,27,29.97,29.88,4,2,9,0.01
2013-8-3,81.8,62.7,37.7,50.0,38.1,29.1,94,50,15,29.97,29.82,4,1,11,0.00
2013-8-4,88.7,68.7,45.1,49.5,42.8,32.8,87,46,15,29.86,29.69,4,1,8,0.00
2013-8-5,86.7,67.7,45.9,51.1,45.1,37.3,86,50,18,29.81,29.71,5,1,9,0.00
2013-8-6,90.7,69.0,44.5,52.8,43.1,35.7,87,47,15,29.83,29.69,5,1,8,0.00
2013-8-7,83.4,65.8,50.8,48.0,44.2,40.5,77,48,23,29.83,29.74,7,1,7,0.00
2013-8-8,82.2,64.8,45.2,51.1,45.1,38.4,87,53,22,29.82,29.72,4,1,7,0.00
2013-8-9,81.9,62.8,52.1,56.7,50.9,44.8,93,69,29,29.78,29.64,6,1,7,0.32
2013-8-10,74.1,58.3,41.8,52.5,48.0,39.9,97,72,38,29.90,29.76,5,1,11,0.00
2013-8-11,78.1,60.9,43.4,50.5,46.3,41.7,95,64,29,29.92,29.80,5,2,7,0.01
2013-8-12,83.1,64.0,42.4,53.7,46.9,40.2,96,60,25,29.87,29.76,6,2,8,0.00
2013-8-13,87.1,66.3,42.3,51.2,45.1,39.2,95,54,19,29.91,29.74,5,1,9,0.00
2013-8-14,87.0,66.5,45.6,52.8,46.1,41.4,89,56,21,29.82,29.70,6,2,8,0.00
2013-8-15,87.8,73.4,53.3,52.4,48.5,40.2,82,45,19,29.79,29.69,7,2,11,0.00
2013-8-16,82.9,67.4,48.1,57.0,52.3,44.8,90,62,34,29.84,29.75,6,2,12,0.00
2013-8-17,85.5,68.3,49.6,56.7,51.4,47.3,96,60,29,29.86,29.75,8,2,11,0.00
2013-8-19,89.4,75.9,54.6,51.7,45.7,33.0,81,39,14,29.91,29.77,7,2,12,0.00
2013-8-20,83.9,66.3,43.6,49.6,35.9,23.2,92,42,12,29.87,29.77,4,1,8,0.00
2013-8-21,85.2,68.4,49.9,43.3,36.1,30.7,63,33,17,29.83,29.73,4,1,12,0.00
2013-8-22,78.4,61.4,51.7,56.4,47.9,37.1,95,64,36,29.79,29.69,6,1,12,0.03
2013-8-23,79.0,62.2,46.6,52.8,49.2,45.3,96,68,33,29.78,29.65,5,2,9,0.05
2013-8-24,77.5,62.7,47.3,52.8,48.9,45.3,95,64,34,29.70,29.58,6,2,12,0.02
2013-8-25,70.3,57.2,47.4,59.4,50.2,45.5,93,79,49,29.79,29.61,9,1,13,0.01
2013-8-26,73.3,58.2,45.2,54.2,47.4,43.0,97,71,36,29.83,29.78,6,2,12,0.02
2013-8-27,82.5,61.4,40.0,50.1,44.0,35.9,95,61,20,29.83,29.63,4,1,8,0.02
2013-8-28,82.6,69.3,49.3,52.6,46.7,39.4,88,49,24,29.73,29.65,5,2,8,0.02
2013-8-29,78.3,63.8,51.5,52.6,49.2,44.5,88,63,31,29.89,29.70,8,2,16,0.00
2013-8-30,82.9,64.4,47.0,54.3,49.0,43.3,96,63,25,29.97,29.82,4,1,6,0.00
2013-8-31,90.1,67.9,45.6,53.7,47.1,32.4,94,56,13,29.86,29.66,5,1,7,0.00
2013-9-1,88.9,69.0,46.1,53.1,43.7,25.8,91,50,11,29.70,29.53,5,2,12,0.00
2013-9-2,82.8,65.9,48.3,52.8,47.1,31.9,93,58,16,29.70,29.59,5,2,10,0.00
2013-9-3,80.5,62.2,44.6,51.7,45.4,30.9,96,62,17,29.81,29.70,5,1,11,0.00
2013-9-4,83.2,62.2,40.8,50.5,43.5,28.0,96,59,14,29.86,29.75,6,1,7,0.00
2013-9-5,70.4,55.7,46.3,50.9,47.1,41.2,93,74,43,29.92,29.69,10,2,11,0.06
2013-9-6,71.6,56.9,46.7,50.1,46.7,43.8,93,71,44,30.00,29.92,8,2,13,0.02
2013-9-7,81.5,60.4,41.9,51.8,45.5,40.0,98,65,25,29.97,29.81,4,1,7,0.00
2013-9-8,75.3,60.0,41.7,51.5,46.0,39.4,94,63,34,29.91,29.85,5,1,12,0.00
2013-9-9,82.4,61.3,37.7,49.3,40.8,33.1,93,55,18,29.94,29.79,4,1,11,0.00
2013-9-10,84.7,64.5,40.8,49.0,42.7,36.9,87,51,22,29.84,29.72,4,1,7,0.00
2013-9-11,87.3,68.1,44.7,50.8,44.1,39.8,86,47,20,29.86,29.76,4,1,7,0.00
2013-9-12,88.8,70.1,48.6,51.0,44.3,39.2,81,44,18,29.82,29.68,5,1,8,0.00
2013-9-13,84.3,66.6,45.2,50.3,44.5,37.9,83,50,21,29.76,29.63,4,1,7,0.00
2013-9-14,87.3,66.5,44.8,51.8,45.0,40.9,87,53,22,29.70,29.54,4,1,6,0.00
2013-9-15,85.5,65.9,51.2,51.1,44.7,28.2,79,52,13,29.64,29.42,8,2,12,0.00
2013-9-16,71.3,56.0,41.7,47.4,43.8,39.6,93,66,34,29.74,29.64,5,2,9,0.00
2013-9-17,58.2,48.5,44.9,49.0,42.8,39.2,93,81,64,29.87,29.62,5,1,8,0.05
2013-9-18,65.0,49.8,34.8,41.7,37.1,31.9,96,66,29,29.98,29.87,4,1,7,0.05
2013-9-19,77.8,54.5,30.5,40.2,34.4,28.2,93,55,17,29.95,29.71,4,1,6,0.10
2013-9-20,73.7,52.3,31.8,46.4,37.5,28.1,90,63,21,29.72,29.46,8,2,13,0.03
2013-9-21,59.8,48.4,40.0,45.0,41.2,37.8,94,77,49,29.67,29.53,8,2,15,0.03
2013-9-22,55.9,47.2,41.0,47.6,42.1,38.3,92,83,61,29.76,29.64,8,3,15,0.04
2013-9-23,61.7,51.9,47.5,46.0,42.8,39.6,81,72,53,29.86,29.76,8,3,15,0.02
2013-9-24,52.1,45.2,39.5,44.1,40.0,35.1,96,82,60,29.82,29.71,7,2,11,0.07
2013-9-25,47.6,39.7,31.2,38.7,35.6,29.7,96,85,68,29.91,29.70,4,1,9,0.04
2013-9-26,52.6,39.5,26.9,37.3,32.6,25.4,97,78,51,30.10,29.91,4,1,10,0.02
2013-9-27,58.7,42.5,26.1,44.4,34.7,24.1,95,77,32,30.13,29.95,7,2,14,0.01
2013-9-28,60.4,52.3,46.9,49.7,45.0,41.4,95,77,53,29.95,29.47,7,4,16,0.23
2013-9-29,48.5,43.8,39.6,47.4,41.7,38.1,97,93,85,29.63,29.44,8,4,14,0.88
2013-9-30,51.7,43.4,35.2,47.4,36.4,31.0,96,77,58,29.91,29.50,10,4,19,0.53
2013-10-1,47.6,39.1,28.2,41.8,33.7,26.0,92,82,59,30.11,29.89,8,2,10,0.18
2013-10-2,48.3,34.9,25.6,35.7,29.6,23.9,96,82,45,30.11,29.99,7,2,13,0.07
2013-10-3,49.9,37.2,25.5,33.4,29.6,23.6,95,76,50,30.37,30.08,5,1,7,0.01
2013-10-4,58.2,39.0,22.5,33.9,27.1,20.3,93,68,31,30.47,30.35,3,1,6,0.01
2013-10-5,72.5,46.0,26.7,34.7,27.5,22.8,88,57,16,30.39,30.16,5,1,9,0.00
2013-10-6,74.0,47.4,28.9,35.6,29.2,25.2,87,59,20,30.17,29.90,5,2,8,0.00
2013-10-7,51.2,44.8,37.5,38.9,33.6,25.4,84,66,48,29.99,29.84,8,3,14,0.00
2013-10-8,49.2,38.5,27.8,39.2,33.7,25.3,95,84,56,30.00,29.85,4,1,9,0.02
2013-10-9,42.1,36.9,32.6,34.8,33.1,29.9,94,86,72,29.94,29.87,5,2,11,0.03
2013-10-10,56.2,39.9,28.0,36.0,31.3,25.5,95,74,43,30.00,29.86,4,1,5,0.00
2013-10-11,53.5,37.4,24.9,37.6,30.4,22.6,95,78,41,30.07,29.99,4,1,6,0.00
2013-10-12,45.9,37.6,28.4,38.6,33.2,26.3,100,85,66,30.07,29.94,4,1,6,0.03
2013-10-13,48.7,40.0,29.4,37.3,34.1,26.5,92,80,54,30.23,30.05,4,1,6,0.00
2013-10-14,53.1,35.7,22.0,35.1,23.6,-99.9,94,71,44,30.35,30.23,4,-38,8,0.00
2013-10-15,60.7,38.1,23.8,31.4,26.4,21.6,94,68,26,30.35,30.14,4,1,9,0.00
2013-10-16,64.9,41.4,25.6,31.6,25.9,21.3,86,59,24,30.15,30.03,3,1,7,0.00
2013-10-17,60.2,39.9,24.1,36.3,28.4,21.1,91,67,34,30.20,30.12,3,1,6,0.00
2013-10-18,65.7,41.5,24.1,38.2,30.5,21.6,93,69,30,30.23,30.10,3,1,5,0.00
2013-10-19,74.0,45.9,27.7,36.5,30.2,24.8,92,62,18,30.15,30.02,5,1,7,0.00
2013-10-20,68.9,44.1,24.7,36.5,29.3,21.9,92,62,24,30.14,30.05,3,1,7,0.00
2013-10-21,68.5,45.1,26.5,39.4,31.9,23.8,91,65,30,30.15,30.03,3,1,6,0.00
2013-10-22,69.8,44.5,26.6,39.5,32.9,24.1,92,69,31,30.12,29.98,3,0,6,0.01
2013-10-23,68.5,44.8,27.3,39.8,33.5,24.8,92,69,33,30.05,29.95,3,1,6,0.00
2013-10-24,71.5,45.3,27.4,41.7,33.7,25.4,94,70,21,30.06,29.95,4,1,7,0.00
2013-10-25,70.6,44.9,27.2,40.2,31.2,24.8,94,66,21,30.20,30.06,4,1,7,0.01
2013-10-26,71.6,44.1,27.1,37.5,30.4,23.9,90,65,21,30.24,30.03,5,1,8,0.00
2013-10-27,48.9,35.1,25.8,41.1,31.6,23.5,96,88,48,30.04,29.64,6,2,9,0.19
2013-10-28,37.8,32.2,29.7,36.8,28.1,22.0,96,85,69,29.86,29.66,7,4,14,0.14
2013-10-29,48.0,32.6,21.0,28.4,23.1,18.5,91,70,43,30.02,29.86,3,1,7,0.06
2013-10-30,56.9,37.1,24.6,34.7,29.1,22.9,95,76,40,30.15,30.01,5,1,9,0.01
2013-10-31,53.9,43.8,34.3,47.3,39.2,31.1,94,84,75,30.18,30.09,5,2,8,0.00
2013-11-1,55.1,41.4,35.2,45.0,38.4,33.5,98,90,67,30.18,29.92,5,1,8,0.01
2013-11-2,45.3,37.2,29.3,41.3,33.8,27.5,96,88,62,29.98,29.71,10,3,19,0.13
2013-11-3,38.4,32.6,28.7,31.6,29.0,26.5,95,87,67,30.07,29.94,7,2,11,0.11
2013-11-4,41.5,35.8,30.5,32.6,30.8,27.9,91,82,68,30.11,30.02,6,2,9,0.01
2013-11-5,47.9,40.6,34.8,45.3,38.9,31.9,97,94,84,30.17,30.06,5,2,9,0.18
2013-11-6,53.2,46.7,42.4,48.4,44.6,41.6,98,93,80,30.21,30.02,4,1,8,0.07
2013-11-7,52.2,41.4,34.9,44.8,37.7,29.5,96,87,69,30.02,29.76,9,3,17,0.04
2013-11-8,44.3,36.0,28.0,33.7,30.4,25.6,91,81,56,30.11,30.02,3,1,7,0.06
2013-11-9,52.1,36.7,25.7,39.7,31.2,24.0,95,82,52,30.08,30.01,4,1,7,0.10
2013-11-10,60.5,40.5,29.0,41.4,33.9,26.7,97,80,41,30.09,30.00,4,1,8,0.01
2013-11-11,41.7,33.7,26.0,37.6,32.0,24.3,97,94,85,30.19,30.09,3,1,9,0.00
2013-11-12,53.3,41.5,32.8,47.7,38.9,31.9,98,91,69,30.32,30.18,3,1,7,0.05
2013-11-13,55.8,36.7,27.0,40.0,30.9,24.7,98,82,38,30.39,30.22,4,0,6,0.01
2013-11-14,47.2,32.0,24.7,31.3,25.6,21.8,92,79,43,30.22,30.00,4,1,7,0.00
2013-11-15,41.9,30.6,18.9,29.6,24.5,16.4,95,79,57,30.01,29.57,9,3,12,0.00
2013-11-16,40.6,35.7,33.5,32.3,30.9,29.3,92,83,67,29.79,29.45,12,6,24,0.02
2013-11-17,43.8,36.1,31.5,33.5,30.6,28.2,88,81,65,29.98,29.79,6,3,11,0.01
2013-11-18,46.7,37.0,28.3,37.7,32.1,25.9,95,83,60,29.97,29.76,5,2,9,0.15
2013-11-19,44.2,40.4,37.3,42.9,39.2,36.1,97,95,94,29.78,29.68,5,3,9,0.56
2013-11-20,38.7,29.0,18.9,37.6,22.2,2.4,97,77,48,30.29,29.75,4,2,12,0.00
2013-11-21,31.3,21.1,12.8,9.0,4.8,0.6,78,50,31,30.66,30.29,5,2,8,0.00
2013-11-22,36.0,19.5,5.4,13.6,8.8,1.2,92,66,34,30.74,30.60,4,1,8,0.01
2013-11-23,41.6,23.0,8.4,20.5,13.9,5.1,88,71,39,30.60,30.35,3,0,4,0.00
2013-11-24,52.2,28.0,12.2,21.6,16.7,8.8,88,67,25,30.35,30.25,5,2,12,0.00
2013-11-25,56.6,30.9,16.6,23.5,18.7,13.3,88,66,21,30.40,30.30,4,1,8,0.00
2013-11-26,51.5,31.9,23.1,23.5,20.4,17.8,82,66,28,30.31,30.13,3,1,6,0.00
2013-11-27,49.2,31.8,24.0,28.0,23.6,20.0,86,73,42,30.12,29.98,2,0,5,0.00
2013-11-28,53.9,31.4,20.3,29.4,23.2,17.9,93,75,36,30.21,30.05,4,1,7,0.00
2013-11-29,52.6,34.3,18.1,32.2,24.9,15.7,93,71,39,30.29,30.21,4,1,5,0.00
2013-11-30,52.7,40.0,29.5,37.5,33.6,27.4,96,79,53,30.30,30.20,5,1,6,0.00
2013-12-1,49.5,45.0,37.5,43.5,39.5,33.4,93,81,73,30.21,29.77,14,5,24,0.07
2013-12-2,46.0,34.1,23.2,39.0,29.6,18.6,100,84,69,29.86,29.66,15,6,28,0.57
2013-12-3,24.0,20.4,17.1,21.1,17.5,14.7,94,88,84,30.01,29.86,2,0,4,0.00
2013-12-4,19.1,12.2,0.4,6.4,3.3,-3.8,83,68,53,30.32,30.25,5,2,7,0.00
2013-12-5,23.6,8.7,-5.5,11.5,2.1,-9.6,92,75,53,30.34,30.21,5,1,8,0.00
2013-12-6,10.8,8.7,6.4,7.3,5.4,2.9,88,86,84,30.21,29.96,4,2,9,0.00
2013-12-7,8.4,0.6,-15.2,3.1,-4.2,-19.8,92,80,71,30.50,30.02,5,2,10,0.00
2013-12-8,17.0,-4.3,-22.2,8.9,-9.2,-27.1,89,79,66,30.81,30.50,4,1,7,0.00
2013-12-9,29.4,11.7,-8.8,21.5,6.4,-13.0,86,79,65,30.81,30.55,5,2,8,0.00
2013-12-10,34.6,20.5,12.5,25.1,15.3,9.2,90,81,61,30.57,30.37,3,1,6,0.00
2013-12-11,40.6,23.1,9.9,29.4,18.7,7.0,93,84,63,30.46,30.32,4,1,7,0.04
2013-12-12,40.4,28.4,12.1,30.5,22.5,9.5,92,79,59,30.32,30.13,4,2,8,0.04
2013-12-13,44.5,33.5,23.8,34.8,29.3,22.0,95,85,67,30.42,30.21,4,1,9,0.13
2013-12-14,46.1,32.8,22.5,33.5,27.3,20.8,96,81,56,30.49,30.40,4,2,8,0.03
2013-12-15,51.5,37.8,29.2,38.3,30.4,24.7,91,76,41,30.44,30.32,5,2,10,0.00
2013-12-16,51.9,32.1,21.1,28.7,24.5,19.0,94,76,36,30.42,30.32,4,1,7,0.01
2013-12-17,53.3,34.0,22.7,29.0,23.9,19.0,88,69,35,30.34,30.11,4,1,8,0.00
2013-12-18,39.3,32.2,28.1,32.8,26.3,21.9,96,79,66,30.10,29.86,4,1,5,0.00
2013-12-19,29.0,22.4,10.3,25.7,14.5,6.4,89,73,48,30.19,29.91,4,1,8,0.00
2013-12-20,40.2,29.2,12.9,38.6,25.2,8.4,96,85,76,30.17,29.90,6,3,12,0.15
2013-12-21,47.1,39.4,33.3,36.7,33.4,29.9,92,80,60,30.09,29.88,5,2,10,0.00
2013-12-22,47.6,40.2,32.9,38.0,33.9,29.3,89,79,60,30.28,30.08,6,2,9,0.00
2013-12-23,47.0,38.6,32.2,40.8,32.8,28.1,88,80,69,30.37,30.21,10,3,13,0.00
2013-12-24,46.1,31.4,23.2,32.9,25.1,21.3,95,80,39,30.49,30.38,5,1,9,0.01
2013-12-25,45.4,30.9,22.4,29.3,24.2,19.6,91,78,51,30.51,30.39,5,2,7,0.00
2013-12-26,55.7,33.9,22.7,29.1,24.1,19.4,88,71,34,30.42,30.26,4,1,6,0.00
2013-12-27,45.3,30.9,24.4,28.0,23.9,21.0,89,76,50,30.29,30.15,4,1,6,0.00
2013-12-28,44.7,27.0,14.3,27.0,17.7,11.7,94,72,30,30.48,30.28,2,0,6,0.00
2013-12-29,42.7,26.9,16.7,21.1,16.9,11.9,83,68,37,30.46,30.34,4,1,6,0.00
2013-12-30,43.7,34.5,26.7,27.1,22.0,19.2,75,61,42,30.34,30.19,4,2,8,0.00
2013-12-31,50.6,37.5,26.7,29.7,23.8,19.3,84,59,33,30.27,30.16,6,1,8,0.00
2014-1-1,49.8,32.1,21.5,31.9,25.3,18.9,93,78,49,30.35,30.25,5,0,6,0.00
2014-1-2,53.8,37.0,24.1,32.3,27.8,21.7,93,72,42,30.30,30.02,5,2,7,0.01